createdAt,value
2018-10-17T00:00:42.666Z,17.00
2018-10-17T00:03:10.322Z,18.63
2018-10-17T00:05:38.013Z,14.70
2018-10-17T00:08:05.922Z,17.17
2018-10-17T00:10:33.609Z,17.87
2018-10-17T00:13:01.275Z,18.40
2018-10-17T00:15:28.950Z,17.27
2018-10-17T00:17:56.600Z,17.77
2018-10-17T00:20:24.239Z,17.23
2018-10-17T00:22:51.908Z,17.87
2018-10-17T00:25:19.514Z,18.50
2018-10-17T00:27:47.230Z,20.37
2018-10-17T00:30:14.887Z,21.03
2018-10-17T00:32:42.640Z,19.30
2018-10-17T00:35:10.429Z,20.53
2018-10-17T00:37:38.084Z,19.40
2018-10-17T00:40:05.889Z,19.13
2018-10-17T00:42:33.711Z,23.43
2018-10-17T00:45:01.422Z,26.93
2018-10-17T00:47:29.298Z,22.50
2018-10-17T00:49:56.923Z,19.83
2018-10-17T00:52:24.479Z,27.37
2018-10-17T00:54:52.085Z,21.37
2018-10-17T00:57:19.704Z,23.27
2018-10-17T00:59:47.390Z,23.17
2018-10-17T01:02:15.018Z,22.03
2018-10-17T01:04:42.641Z,22.00
2018-10-17T01:07:10.348Z,20.73
2018-10-17T01:09:37.998Z,22.07
2018-10-17T01:12:05.627Z,20.80
2018-10-17T01:14:33.302Z,20.13
2018-10-17T01:17:00.974Z,20.53
2018-10-17T01:19:28.592Z,26.83
2018-10-17T01:21:56.190Z,19.20
2018-10-17T01:24:23.822Z,20.50
2018-10-17T01:26:51.504Z,23.60
2018-10-17T01:29:19.296Z,22.43
2018-10-17T01:31:47.006Z,24.10
2018-10-17T01:34:14.646Z,22.47
2018-10-17T01:36:42.270Z,20.90
2018-10-17T01:39:10.750Z,20.60
2018-10-17T01:41:38.379Z,21.73
2018-10-17T01:44:06.526Z,21.40
2018-10-17T01:46:34.374Z,18.80
2018-10-17T01:49:02.004Z,19.20
2018-10-17T01:51:29.630Z,23.10
2018-10-17T01:53:57.322Z,19.17
2018-10-17T01:56:24.991Z,19.13
2018-10-17T01:58:52.575Z,17.13
2018-10-17T02:01:20.152Z,17.53
2018-10-17T02:03:47.842Z,16.73
2018-10-17T02:06:15.454Z,17.03
2018-10-17T02:08:43.114Z,17.43
2018-10-17T02:11:10.737Z,19.40
2018-10-17T02:13:38.358Z,17.60
2018-10-17T02:16:05.986Z,18.20
2018-10-17T02:18:33.630Z,17.80
2018-10-17T02:21:01.286Z,18.90
2018-10-17T02:23:28.855Z,19.20
2018-10-17T02:25:56.455Z,16.53
2018-10-17T02:28:24.087Z,17.90
2018-10-17T02:30:51.721Z,18.60
2018-10-17T02:33:19.372Z,18.73
2018-10-17T02:35:46.972Z,19.13
2018-10-17T02:38:14.547Z,19.40
2018-10-17T02:40:42.114Z,17.77
2018-10-17T02:43:09.888Z,17.67
2018-10-17T02:45:37.503Z,17.73
2018-10-17T02:48:05.238Z,17.10
2018-10-17T02:50:32.829Z,16.97
2018-10-17T02:53:00.549Z,17.50
2018-10-17T02:55:28.203Z,17.40
2018-10-17T02:57:55.848Z,17.57
2018-10-17T03:00:23.415Z,16.10
2018-10-17T03:02:50.994Z,16.90
2018-10-17T03:05:18.688Z,16.40
2018-10-17T03:07:46.318Z,16.17
2018-10-17T03:10:14.115Z,16.67
2018-10-17T03:12:41.796Z,16.60
2018-10-17T03:15:09.611Z,16.00
2018-10-17T03:17:37.206Z,15.60
2018-10-17T03:20:06.343Z,15.47
2018-10-17T03:22:33.976Z,15.50
2018-10-17T03:25:01.657Z,15.73
2018-10-17T03:27:29.442Z,14.93
2018-10-17T03:29:57.066Z,14.87
2018-10-17T03:32:24.674Z,17.53
2018-10-17T03:34:52.293Z,15.60
2018-10-17T03:37:20.014Z,16.00
2018-10-17T03:39:47.515Z,14.40
2018-10-17T03:42:15.143Z,15.47
2018-10-17T03:44:42.743Z,15.70
2018-10-17T03:47:10.398Z,16.40
2018-10-17T03:49:38.115Z,16.30
2018-10-17T03:52:05.747Z,15.97
2018-10-17T03:54:33.451Z,16.10
2018-10-17T03:57:01.035Z,16.80
2018-10-17T03:59:28.843Z,16.77
2018-10-17T04:01:56.372Z,17.37
2018-10-17T04:04:24.083Z,17.30
2018-10-17T04:06:51.762Z,17.97
2018-10-17T04:09:19.350Z,18.10
2018-10-17T04:11:46.979Z,17.53
2018-10-17T04:14:14.665Z,16.63
2018-10-17T04:16:42.275Z,17.57
2018-10-17T04:19:09.964Z,15.80
2018-10-17T04:21:37.457Z,15.87
2018-10-17T04:24:05.443Z,17.20
2018-10-17T04:26:33.026Z,16.83
2018-10-17T04:29:00.620Z,15.90
2018-10-17T04:31:28.207Z,17.83
2018-10-17T04:33:55.867Z,15.13
2018-10-17T04:36:23.530Z,17.50
2018-10-17T04:38:51.187Z,17.07
2018-10-17T04:41:18.864Z,15.93
2018-10-17T04:43:46.363Z,18.23
2018-10-17T04:46:13.993Z,19.30
2018-10-17T04:48:41.579Z,16.17
2018-10-17T04:51:09.215Z,17.27
2018-10-17T04:53:36.856Z,17.83
2018-10-17T04:56:05.027Z,16.77
2018-10-17T04:58:32.595Z,16.40
2018-10-17T05:01:00.254Z,16.43
2018-10-17T05:03:27.858Z,18.20
2018-10-17T05:05:55.516Z,16.60
2018-10-17T05:08:23.091Z,18.37
2018-10-17T05:10:50.655Z,19.60
2018-10-17T05:13:18.301Z,18.03
2018-10-17T05:15:45.988Z,17.40
2018-10-17T05:18:13.603Z,19.70
2018-10-17T05:20:41.280Z,19.10
2018-10-17T05:23:08.990Z,19.50
2018-10-17T05:25:36.607Z,19.43
2018-10-17T05:28:04.610Z,18.77
2018-10-17T05:30:32.226Z,19.07
2018-10-17T05:32:59.834Z,21.43
2018-10-17T05:35:27.363Z,27.83
2018-10-17T05:37:55.029Z,28.60
2018-10-17T05:40:22.694Z,25.50
2018-10-17T05:42:50.302Z,29.67
2018-10-17T05:45:17.907Z,26.83
2018-10-17T05:47:45.510Z,27.90
2018-10-17T05:50:13.079Z,30.03
2018-10-17T05:52:40.717Z,29.83
2018-10-17T05:55:08.387Z,27.70
2018-10-17T05:57:35.984Z,35.83
2018-10-17T06:00:03.738Z,25.00
2018-10-17T06:02:33.311Z,24.87
2018-10-17T06:05:01.066Z,19.50
2018-10-17T06:07:28.678Z,18.90
2018-10-17T06:09:56.356Z,17.37
2018-10-17T06:12:23.947Z,18.03
2018-10-17T06:14:51.554Z,20.63
2018-10-17T06:17:19.169Z,17.53
2018-10-17T06:19:46.857Z,18.87
2018-10-17T06:22:14.483Z,18.23
2018-10-17T06:24:42.079Z,17.00
2018-10-17T06:27:09.661Z,15.30
2018-10-17T06:29:37.227Z,17.80
2018-10-17T06:32:05.279Z,18.13
2018-10-17T06:34:32.971Z,17.33
2018-10-17T06:37:00.634Z,18.37
2018-10-17T06:39:28.188Z,18.17
2018-10-17T06:41:55.747Z,19.20
2018-10-17T06:44:23.348Z,17.60
2018-10-17T06:46:51.021Z,18.60
2018-10-17T06:49:18.712Z,17.33
2018-10-17T06:51:46.309Z,19.70
2018-10-17T06:54:14.016Z,19.37
2018-10-17T06:56:41.699Z,18.63
2018-10-17T06:59:09.282Z,17.43
2018-10-17T07:01:37.012Z,17.50
2018-10-17T07:04:04.829Z,19.23
2018-10-17T07:06:32.607Z,24.10
2018-10-17T07:09:00.231Z,39.77
2018-10-17T07:11:27.898Z,35.97
2018-10-17T07:13:55.495Z,24.33
2018-10-17T07:16:23.163Z,24.63
2018-10-17T07:18:50.812Z,21.67
2018-10-17T07:21:18.425Z,22.10
2018-10-17T07:23:46.067Z,19.07
2018-10-17T07:26:13.701Z,19.23
2018-10-17T07:28:41.406Z,19.40
2018-10-17T07:31:09.090Z,16.00
2018-10-17T07:33:36.887Z,15.30
2018-10-17T07:36:04.873Z,17.23
2018-10-17T07:38:32.534Z,16.97
2018-10-17T07:41:00.307Z,16.03
2018-10-17T07:43:27.923Z,16.83
2018-10-17T07:45:55.660Z,16.83
2018-10-17T07:48:23.282Z,17.73
2018-10-17T07:50:50.821Z,15.70
2018-10-17T07:53:18.517Z,16.00
2018-10-17T07:55:46.078Z,17.50
2018-10-17T07:58:13.756Z,16.43
2018-10-17T08:00:41.372Z,16.70
2018-10-17T08:03:08.995Z,18.23
2018-10-17T08:05:36.671Z,16.20
2018-10-17T08:08:04.532Z,18.23
2018-10-17T08:10:32.127Z,19.87
2018-10-17T08:12:59.775Z,19.23
2018-10-17T08:15:27.363Z,18.40
2018-10-17T08:17:55.054Z,18.70
2018-10-17T08:20:22.630Z,22.97
2018-10-17T08:22:50.251Z,22.70
2018-10-17T08:25:17.818Z,23.00
2018-10-17T08:27:45.771Z,23.20
2018-10-17T08:30:13.403Z,25.97
2018-10-17T08:32:40.998Z,29.90
2018-10-17T08:35:08.736Z,29.13
2018-10-17T08:37:36.925Z,26.17
2018-10-17T08:40:04.886Z,28.27
2018-10-17T08:42:32.752Z,27.80
2018-10-17T08:45:00.522Z,28.07
2018-10-17T08:47:28.239Z,32.77
2018-10-17T08:49:56.307Z,29.57
2018-10-17T08:52:23.899Z,29.47
2018-10-17T08:54:51.519Z,29.67
2018-10-17T08:57:19.171Z,32.27
2018-10-17T08:59:46.796Z,31.87
2018-10-17T09:02:14.524Z,30.03
2018-10-17T09:04:42.120Z,33.53
2018-10-17T09:07:09.755Z,29.70
2018-10-17T09:09:37.395Z,30.43
2018-10-17T09:12:05.110Z,32.80
2018-10-17T09:14:32.648Z,33.00
2018-10-17T09:17:00.297Z,30.67
2018-10-17T09:19:27.936Z,31.80
2018-10-17T09:21:55.917Z,31.47
2018-10-17T09:24:23.087Z,31.80
2018-10-17T09:26:50.639Z,29.43
2018-10-17T09:29:18.306Z,34.10
2018-10-17T09:31:45.835Z,31.40
2018-10-17T09:34:13.491Z,30.47
2018-10-17T09:36:41.059Z,30.87
2018-10-17T09:39:10.195Z,33.70
2018-10-17T09:41:37.819Z,33.20
2018-10-17T09:44:05.527Z,35.87
2018-10-17T09:46:33.205Z,32.87
2018-10-17T09:49:00.870Z,32.33
2018-10-17T09:51:28.600Z,31.77
2018-10-17T09:53:56.288Z,31.23
2018-10-17T09:56:23.842Z,30.80
2018-10-17T09:58:51.867Z,31.30
2018-10-17T10:01:25.119Z,32.90
2018-10-17T10:03:52.794Z,34.70
2018-10-17T10:06:20.383Z,30.00
2018-10-17T10:08:48.054Z,34.17
2018-10-17T10:11:15.687Z,34.00
2018-10-17T10:13:43.323Z,32.43
2018-10-17T10:16:10.953Z,31.23
2018-10-17T10:18:38.583Z,31.47
2018-10-17T10:21:06.159Z,29.27
2018-10-17T10:23:33.817Z,32.63
2018-10-17T10:26:01.407Z,31.17
2018-10-17T10:28:29.099Z,31.03
2018-10-17T10:30:56.663Z,31.33
2018-10-17T10:33:24.255Z,34.80
2018-10-17T10:35:51.946Z,32.27
2018-10-17T10:38:19.536Z,30.53
2018-10-17T10:40:47.224Z,29.73
2018-10-17T10:43:14.739Z,34.80
2018-10-17T10:45:42.403Z,34.90
2018-10-17T10:48:10.115Z,32.73
2018-10-17T10:50:37.715Z,30.60
2018-10-17T10:53:05.402Z,33.73
2018-10-17T10:55:32.963Z,33.10
2018-10-17T10:58:00.603Z,31.43
2018-10-17T11:00:28.193Z,34.80
2018-10-17T11:02:55.832Z,33.90
2018-10-17T11:05:23.565Z,32.77
2018-10-17T11:07:51.633Z,35.07
2018-10-17T11:10:19.382Z,32.27
2018-10-17T11:12:47.011Z,31.73
2018-10-17T11:15:14.659Z,33.53
2018-10-17T11:17:42.224Z,30.10
2018-10-17T11:20:09.850Z,33.10
2018-10-17T11:22:37.591Z,32.27
2018-10-17T11:25:07.096Z,30.97
2018-10-17T11:27:34.807Z,31.90
2018-10-17T11:30:02.452Z,34.10
2018-10-17T11:32:30.048Z,30.40
2018-10-17T11:34:57.852Z,30.23
2018-10-17T11:37:25.510Z,32.93
2018-10-17T11:39:53.093Z,34.83
2018-10-17T11:42:20.620Z,27.57
2018-10-17T11:44:48.255Z,28.23
2018-10-17T11:47:16.034Z,32.00
2018-10-17T11:49:43.531Z,29.10
2018-10-17T11:52:11.191Z,30.70
2018-10-17T11:54:38.807Z,27.97
2018-10-17T11:57:06.414Z,30.37
2018-10-17T11:59:34.128Z,27.60
2018-10-17T12:02:01.734Z,29.97
2018-10-17T12:04:29.514Z,28.37
2018-10-17T12:06:56.927Z,30.03
2018-10-17T12:09:24.571Z,27.33
2018-10-17T12:11:52.183Z,25.87
2018-10-17T12:14:19.860Z,28.03
2018-10-17T12:16:47.525Z,30.63
2018-10-17T12:19:15.485Z,27.90
2018-10-17T12:21:43.078Z,25.70
2018-10-17T12:24:10.758Z,25.83
2018-10-17T12:26:38.407Z,27.77
2018-10-17T12:29:06.048Z,27.30
2018-10-17T12:31:33.687Z,27.63
2018-10-17T12:34:01.332Z,32.40
2018-10-17T12:36:28.930Z,28.97
2018-10-17T12:38:56.507Z,28.13
2018-10-17T12:41:24.120Z,31.60
2018-10-17T12:43:51.822Z,31.43
2018-10-17T12:46:19.489Z,30.47
2018-10-17T12:48:47.143Z,28.40
2018-10-17T12:51:14.771Z,25.13
2018-10-17T12:53:42.393Z,25.17
2018-10-17T12:56:10.175Z,25.70
2018-10-17T12:58:37.638Z,25.50
2018-10-17T13:01:05.348Z,24.40
2018-10-17T13:03:32.928Z,23.70
2018-10-17T13:06:00.597Z,21.23
2018-10-17T13:08:28.243Z,22.83
2018-10-17T13:10:55.876Z,25.27
2018-10-17T13:13:23.467Z,19.87
2018-10-17T13:15:51.184Z,24.10
2018-10-17T13:18:18.714Z,20.73
2018-10-17T13:20:46.411Z,21.63
2018-10-17T13:23:14.091Z,17.90
2018-10-17T13:25:41.676Z,20.27
2018-10-17T13:28:09.212Z,20.97
2018-10-17T13:30:36.787Z,18.00
2018-10-17T13:33:04.477Z,17.87
2018-10-17T13:35:32.075Z,21.63
2018-10-17T13:37:59.651Z,16.00
2018-10-17T13:40:27.303Z,19.60
2018-10-17T13:42:55.017Z,19.57
2018-10-17T13:45:22.618Z,18.93
2018-10-17T13:47:50.259Z,17.03
2018-10-17T13:50:17.919Z,18.27
2018-10-17T13:52:45.560Z,16.00
2018-10-17T13:55:13.180Z,17.70
2018-10-17T13:57:40.877Z,17.17
2018-10-17T14:00:10.950Z,16.93
2018-10-17T14:02:38.754Z,17.13
2018-10-17T14:05:06.647Z,19.10
2018-10-17T14:07:34.256Z,17.53
2018-10-17T14:10:01.998Z,17.73
2018-10-17T14:12:29.605Z,15.20
2018-10-17T14:14:57.290Z,14.93
2018-10-17T14:17:24.895Z,16.30
2018-10-17T14:19:52.486Z,14.93
2018-10-17T14:22:20.205Z,14.83
2018-10-17T14:24:47.815Z,13.00
2018-10-17T14:27:15.549Z,13.73
2018-10-17T14:29:43.212Z,15.43
2018-10-17T14:32:10.827Z,14.17
2018-10-17T14:34:38.407Z,15.00
2018-10-17T14:37:06.192Z,14.50
2018-10-17T14:39:34.877Z,15.00
2018-10-17T14:42:02.655Z,14.57
2018-10-17T14:44:30.274Z,14.47
2018-10-17T14:46:57.919Z,12.90
2018-10-17T14:49:25.524Z,12.37
2018-10-17T14:51:53.215Z,15.10
2018-10-17T14:54:20.775Z,13.17
2018-10-17T14:56:48.381Z,12.00
2018-10-17T14:59:16.032Z,12.27
2018-10-17T15:01:43.613Z,12.93
2018-10-17T15:04:11.179Z,12.57
2018-10-17T15:06:38.779Z,10.83
2018-10-17T15:09:07.407Z,11.87
2018-10-17T15:11:35.190Z,10.33
2018-10-17T15:14:02.768Z,11.23
2018-10-17T15:16:30.399Z,12.37
2018-10-17T15:18:57.946Z,10.00
2018-10-17T15:21:25.577Z,10.43
2018-10-17T15:23:53.188Z,10.90
2018-10-17T15:26:20.767Z,16.43
2018-10-17T15:28:48.349Z,10.50
2018-10-17T15:31:15.970Z,9.97
2018-10-17T15:33:43.623Z,13.03
2018-10-17T15:36:11.264Z,13.50
2018-10-17T15:38:38.860Z,9.93
2018-10-17T15:41:06.503Z,11.47
2018-10-17T15:43:34.126Z,12.53
2018-10-17T15:46:01.709Z,9.30
2018-10-17T15:48:29.344Z,11.93
2018-10-17T15:50:57.024Z,12.20
2018-10-17T15:53:24.585Z,14.87
2018-10-17T15:55:52.143Z,12.30
2018-10-17T15:58:19.818Z,12.63
2018-10-17T16:00:47.622Z,10.83
2018-10-17T16:03:15.255Z,40.50
2018-10-17T16:05:42.871Z,23.90
2018-10-17T16:08:10.565Z,19.70
2018-10-17T16:10:38.069Z,23.30
2018-10-17T16:13:05.713Z,15.40
2018-10-17T16:15:38.159Z,12.50
2018-10-17T16:18:06.068Z,13.13
2018-10-17T16:20:33.743Z,13.97
2018-10-17T16:23:01.416Z,11.33
2018-10-17T16:25:28.990Z,30.63
2018-10-17T16:27:56.868Z,14.20
2018-10-17T16:30:24.950Z,43.53
2018-10-17T16:32:52.481Z,67.87
2018-10-17T16:35:20.087Z,20.87
2018-10-17T16:37:47.714Z,17.30
2018-10-17T16:40:15.303Z,16.27
2018-10-17T16:42:43.015Z,19.53
2018-10-17T16:45:11.171Z,19.67
2018-10-17T16:47:38.937Z,20.07
2018-10-17T16:50:06.896Z,16.20
2018-10-17T16:52:34.963Z,14.00
2018-10-17T16:55:02.824Z,23.40
2018-10-17T16:57:30.391Z,16.03
2018-10-17T16:59:58.021Z,12.37
2018-10-17T17:02:25.574Z,13.77
2018-10-17T17:04:53.245Z,13.77
2018-10-17T17:07:20.850Z,14.20
2018-10-17T17:09:48.583Z,18.97
2018-10-17T17:12:16.278Z,15.10
2018-10-17T17:14:43.977Z,10.30
2018-10-17T17:17:11.733Z,13.57
2018-10-17T17:19:39.323Z,10.17
2018-10-17T17:22:07.843Z,11.57
2018-10-17T17:24:35.518Z,11.87
2018-10-17T17:27:03.681Z,13.63
2018-10-17T17:29:31.393Z,11.07
2018-10-17T17:31:58.950Z,21.07
2018-10-17T17:34:26.617Z,20.87
2018-10-17T17:36:54.200Z,21.43
2018-10-17T17:39:21.764Z,14.07
2018-10-17T17:41:49.391Z,16.10
2018-10-17T17:44:17.351Z,13.77
2018-10-17T17:46:44.938Z,12.50
2018-10-17T17:49:12.454Z,14.93
2018-10-17T17:51:40.099Z,14.63
2018-10-17T17:54:07.695Z,12.23
2018-10-17T17:56:35.312Z,11.90
2018-10-17T17:59:03.023Z,12.00
2018-10-17T18:01:30.617Z,15.87
2018-10-17T18:03:58.382Z,15.60
2018-10-17T18:06:25.988Z,13.13
2018-10-17T18:08:53.610Z,12.73
2018-10-17T18:11:22.467Z,12.23
2018-10-17T18:13:50.754Z,12.67
2018-10-17T18:16:18.846Z,14.23
2018-10-17T18:18:46.730Z,13.27
2018-10-17T18:21:14.732Z,12.17
2018-10-17T18:23:42.619Z,12.90
2018-10-17T18:26:10.779Z,12.50
2018-10-17T18:28:38.554Z,13.20
2018-10-17T18:31:06.480Z,11.97
2018-10-17T18:33:34.057Z,14.00
2018-10-17T18:36:01.725Z,13.70
2018-10-17T18:38:29.578Z,16.27
2018-10-17T18:40:57.322Z,13.67
2018-10-17T18:43:25.282Z,11.20
2018-10-17T18:45:52.946Z,12.27
2018-10-17T18:48:20.554Z,14.30
2018-10-17T18:50:48.319Z,13.10
2018-10-17T18:53:15.935Z,12.10
2018-10-17T18:55:43.594Z,12.30
2018-10-17T18:58:11.627Z,13.07
2018-10-17T19:00:39.238Z,11.50
2018-10-17T19:03:06.953Z,12.37
2018-10-17T19:05:34.523Z,11.90
2018-10-17T19:08:02.274Z,12.53
2018-10-17T19:10:29.903Z,12.30
2018-10-17T19:12:57.494Z,12.30
2018-10-17T19:15:25.130Z,13.10
2018-10-17T19:17:52.722Z,11.70
2018-10-17T19:20:20.546Z,13.80
2018-10-17T19:22:48.174Z,10.53
2018-10-17T19:25:15.830Z,13.77
2018-10-17T19:27:43.394Z,14.10
2018-10-17T19:30:11.117Z,12.70
2018-10-17T19:32:38.846Z,11.67
2018-10-17T19:35:06.619Z,15.87
2018-10-17T19:37:34.304Z,11.43
2018-10-17T19:40:02.097Z,13.63
2018-10-17T19:42:30.658Z,15.63
2018-10-17T19:44:58.515Z,13.37
2018-10-17T19:47:26.483Z,65.13
2018-10-17T19:49:54.241Z,41.07
2018-10-17T19:52:21.901Z,69.30
2018-10-17T19:54:49.576Z,152.43
2018-10-17T19:57:17.414Z,193.27
2018-10-17T19:59:44.997Z,29.17
2018-10-17T20:02:12.708Z,54.87
2018-10-17T20:04:40.363Z,58.00
2018-10-17T20:07:08.018Z,23.20
2018-10-17T20:09:35.589Z,16.00
2018-10-17T20:12:03.268Z,11.40
2018-10-17T20:14:30.903Z,11.17
2018-10-17T20:16:58.535Z,9.93
2018-10-17T20:19:26.695Z,12.90
2018-10-17T20:21:54.443Z,13.93
2018-10-17T20:24:22.091Z,11.27
2018-10-17T20:26:49.742Z,13.90
2018-10-17T20:29:17.419Z,11.37
2018-10-17T20:31:45.127Z,12.57
2018-10-17T20:34:12.751Z,10.67
2018-10-17T20:36:40.391Z,11.93
2018-10-17T20:39:10.063Z,12.57
2018-10-17T20:41:38.167Z,14.10
2018-10-17T20:44:06.001Z,11.63
2018-10-17T20:46:33.574Z,12.93
2018-10-17T20:49:01.197Z,12.67
2018-10-17T20:51:28.887Z,12.33
2018-10-17T20:53:56.495Z,12.20
2018-10-17T20:56:24.236Z,12.13
2018-10-17T20:58:51.978Z,11.47
2018-10-17T21:01:19.603Z,12.33
2018-10-17T21:03:47.222Z,13.67
2018-10-17T21:06:14.863Z,11.23
2018-10-17T21:08:42.447Z,12.50
2018-10-17T21:11:10.182Z,12.47
2018-10-17T21:13:37.915Z,13.00
2018-10-17T21:16:05.591Z,12.17
2018-10-17T21:18:33.470Z,13.13
2018-10-17T21:21:01.019Z,12.60
2018-10-17T21:23:28.707Z,13.57
2018-10-17T21:25:56.323Z,13.07
2018-10-17T21:28:23.911Z,12.53
2018-10-17T21:30:51.747Z,12.20
2018-10-17T21:33:19.467Z,13.20
2018-10-17T21:35:47.102Z,11.57
2018-10-17T21:38:14.953Z,12.63
2018-10-17T21:40:42.556Z,12.20
2018-10-17T21:43:10.236Z,11.03
2018-10-17T21:45:37.965Z,11.40
2018-10-17T21:48:05.506Z,11.90
2018-10-17T21:50:33.161Z,11.53
2018-10-17T21:53:00.831Z,11.03
2018-10-17T21:55:28.542Z,11.40
2018-10-17T21:57:56.355Z,10.93
2018-10-17T22:00:24.119Z,10.77
2018-10-17T22:02:51.746Z,12.63
2018-10-17T22:05:19.363Z,10.90
2018-10-17T22:07:46.906Z,11.13
2018-10-17T22:10:14.537Z,10.40
2018-10-17T22:12:42.087Z,12.03
2018-10-17T22:15:10.071Z,13.83
2018-10-17T22:17:37.659Z,13.40
2018-10-17T22:20:05.729Z,14.37
2018-10-17T22:22:33.599Z,16.73
2018-10-17T22:25:01.421Z,14.13
2018-10-17T22:27:29.066Z,16.23
2018-10-17T22:29:56.782Z,44.43
2018-10-17T22:32:24.443Z,141.47
2018-10-17T22:34:52.019Z,23.93
2018-10-17T22:37:19.604Z,43.37
2018-10-17T22:39:47.159Z,19.23
2018-10-17T22:42:14.773Z,15.60
2018-10-17T22:44:42.384Z,16.73
2018-10-17T22:47:10.128Z,15.33
2018-10-17T22:49:37.675Z,16.63
2018-10-17T22:52:05.263Z,14.73
2018-10-17T22:54:32.879Z,17.07
2018-10-17T22:57:00.526Z,17.20
2018-10-17T22:59:28.171Z,15.80
2018-10-17T23:01:55.866Z,18.17
2018-10-17T23:04:23.482Z,17.70
2018-10-17T23:06:51.086Z,16.27
2018-10-17T23:09:18.665Z,17.00
2018-10-17T23:11:46.300Z,16.33
2018-10-17T23:14:14.000Z,17.73
2018-10-17T23:16:41.871Z,16.37
2018-10-17T23:19:10.343Z,16.70
2018-10-17T23:21:38.184Z,17.10
2018-10-17T23:24:05.942Z,17.10
2018-10-17T23:26:33.562Z,15.70
2018-10-17T23:29:01.272Z,16.50
2018-10-17T23:31:28.883Z,15.23
2018-10-17T23:33:56.466Z,16.63
2018-10-17T23:36:24.127Z,17.00
2018-10-17T23:38:52.142Z,18.30
2018-10-17T23:41:20.227Z,15.43
2018-10-17T23:43:47.835Z,16.13
2018-10-17T23:46:15.439Z,14.87
2018-10-17T23:48:43.102Z,15.83
2018-10-17T23:51:10.987Z,16.30
2018-10-17T23:53:38.628Z,21.03
2018-10-17T23:56:06.557Z,20.97
2018-10-17T23:58:34.044Z,24.23
